Αρχική σελίδα
METAR-TAF:

METAR-TAF

Αεροδρόμια :

Kosrae, Μικρονησία

γεωγραφικό πλάτος: 05-21N, γεωγραφικό μήκος: 162-57E, υψόμετρο: 3 μ

Παρών καιρός

Η αναφορά έγινε 1 ώρα και 27 λεπτά πριν, στις 23:50 UTC
Άνεμος 10 kt από BA
Θερμοκρασία 31°C
Υγρασία 71%
Πίεση 1009 hPa
Ορατότητα: 16.1 χλμ
Λίγα νέφη σε ύψος 2100 πόδια
Διάσπαρτα νέφη σε ύψος 13000 πόδια
Αρκετά νέφη σε ύψος 30000 πόδια

METAR: PTSA 112350Z 05010KT 10SM FEW021 SCT130 BKN300 31/25 A2980 RMK LAST

Χρόνος: 12:17 (01:17 UTC)

Πρόγνωση Καιρού

Η αναφορά έγινε 1 ώρα και 43 λεπτά πριν, στις 23:34 UTC
Η πρόγνωση ισχύει από τις 12 στις 00 UTC έως τις 12 στις 24 UTC
Άνεμος 11 kt από BA
Ορατότητα: 10 χλμ
Λίγα νέφη σε ύψος 1500 πόδια
Διάσπαρτα νέφη σε ύψος 2500 πόδια
Διάσπαρτα νέφη σε ύψος 13000 πόδια
Όμβροι σε κοντινή απόσταση

TAF: PTSA 112334Z 1200/1224 05011KT P6SM VCSH FEW015 SCT025 SCT130

Μετεωρολογικές αναφορές και προγνώσεις για περισσότερα από 4000 αεροδρόμια (δελτία METAR και TAF).

Οι διαθέσιμοι σταθμοί απεικονίζονται στο χάρτη με κίτρινες και κόκκινες κουκκίδες.

Μετακινήστε το ποντίκι πάνω από τις κουκκίδες για να δείτε το όνομα του σταθμού.

Στη συνέχεια, κάντε κλικ για να δείτε τις μετεωρολογικές αναφορές και τις προγνώσεις καιρού.

Για να αλλάξετε το χάρτη: κάντε κλικ στα πράσινα κουμπιά με τον μαύρο σταυρό για να ζουμάρετε, στο πράσινο κουμπί με την παύλα για να αφαιρέσετε το ζουμ ή στα πράσινα βέλη για να αντιπαραβάλλετε χάρτες.


METAR-TAF: